Track Трифонова Кристина

Time Latitude Longitude Accuracy (66% radius in meters) Altitude (meters) Speed (km/hour) Bearing (degrees) Battery (%) GPS flag
07:08:38 57.204041 60.118155 0 0 0 0 1 delete
07:08:37 57.204062 60.118120 0 0 0 0 1 delete
07:08:36 57.204086 60.118080 0 0 0 0 1 delete
07:08:35 57.204108 60.118040 0 0 0 0 1 delete
07:08:34 57.204130 60.118003 0 0 0 0 1 delete
07:08:33 57.204154 60.117966 0 0 0 0 1 delete
07:08:32 57.204178 60.117928 0 0 0 0 1 delete
07:08:31 57.204204 60.117888 0 0 0 0 1 delete
07:08:30 57.204231 60.117849 0 0 0 0 1 delete
07:08:29 57.204260 60.117813 0 0 0 0 1 delete
07:08:28 57.204292 60.117779 0 0 0 0 1 delete
07:08:27 57.204325 60.117745 0 0 0 0 1 delete
07:08:26 57.204358 60.117711 0 0 0 0 1 delete
07:08:25 57.204389 60.117674 0 0 0 0 1 delete
07:08:24 57.204420 60.117638 0 0 0 0 1 delete
07:08:23 57.204452 60.117598 0 0 0 0 1 delete
07:08:22 57.204486 60.117558 0 0 0 0 1 delete
07:08:21 57.204523 60.117521 0 0 0 0 1 delete
07:08:20 57.204558 60.117490 0 0 0 0 1 delete
07:08:19 57.204597 60.117472 0 0 0 0 1 delete
07:08:18 57.204641 60.117456 0 0 0 0 1 delete
07:08:17 57.204687 60.117450 0 0 0 0 1 delete
07:08:16 57.204734 60.117449 0 0 0 0 1 delete
07:08:15 57.204777 60.117459 0 0 0 0 1 delete
07:08:14 57.204821 60.117472 0 0 0 0 1 delete
07:08:13 57.204865 60.117483 0 0 0 0 1 delete
07:08:12 57.204908 60.117491 0 0 0 0 1 delete
07:08:11 57.204948 60.117497 0 0 0 0 1 delete
07:08:10 57.204985 60.117508 0 0 0 0 1 delete
07:08:09 57.205020 60.117519 0 0 0 0 1 delete
07:08:08 57.205052 60.117532 0 0 0 0 1 delete
07:08:07 57.205082 60.117542 0 0 0 0 1 delete
07:08:06 57.205109 60.117553 0 0 0 0 1 delete
07:08:05 57.205133 60.117565 0 0 0 0 1 delete
07:08:04 57.205153 60.117579 0 0 0 0 1 delete
07:08:03 57.205171 60.117593 0 0 0 0 1 delete
07:08:02 57.205183 60.117604 0 0 0 0 1 delete
07:08:01 57.205196 60.117612 0 0 0 0 1 delete
07:08:00 57.205204 60.117615 0 0 0 0 1 delete
07:07:59 57.205212 60.117615 0 0 0 0 1 delete
07:07:58 57.205217 60.117608 0 0 0 0 1 delete
07:07:57 57.205229 60.117587 0 0 0 0 1 delete
07:07:56 57.205240 60.117555 0 0 0 0 1 delete
07:07:55 57.205254 60.117513 0 0 0 0 1 delete
07:07:54 57.205267 60.117470 0 0 0 0 1 delete
07:07:53 57.205282 60.117424 0 0 0 0 1 delete
07:07:52 57.205296 60.117380 0 0 0 0 1 delete
07:07:51 57.205309 60.117340 0 0 0 0 1 delete
07:07:50 57.205323 60.117311 0 0 0 0 1 delete
07:07:49 57.205339 60.117287 0 0 0 0 1 delete